NCAR-RAP Real-Time Weather Data

Output produced by METARs form (23 June 2018  15:26 UTC)
found at http://weather.rap.ucar.edu/surface/
 
RJEC 231100Z 17006KT 9999 -SHRA FEW015 SCT025 BKN060 17/14 Q0999
RJEC 231000Z 21004KT 170V240 9999 -SHRA FEW020 SCT060 BKN080 18/13 Q0998
RJEC 230900Z 17008KT 9999 -SHRA FEW025 SCT050 BKN080 19/13 Q0998
RJEC 230800Z 19009KT 160V230 9999 -SHRA FEW025 SCT050 BKN080 21/13 Q0998
RJEC 230700Z 20011KT 150V240 9999 FEW030 SCT080 BKN100 23/12 Q0997
RJEC 230600Z 19014KT 9999 FEW030 SCT060 BKN090 22/12 Q0997
RJEC 230500Z 17013KT 9999 FEW035 BKN090 22/13 Q0997
RJEC 230400Z 19015G25KT 9999 FEW035 SCT080 BKN100 22/12 Q0998
RJEC 230300Z 17010KT 9999 FEW035 SCT100 BKN130 22/14 Q0997
RJEC 230222Z 17019G29KT 9999 FEW035 SCT100 BKN150 22/13 Q0997 RMK 1CU035 4AC100 7AC150 A2946
RJEC 230200Z 17018KT 9999 FEW035 SCT100 BKN150 22/14 Q0997
RJEC 230100Z 19012KT 150V220 9999 FEW030 SCT110 BKN150 23/13 Q0998
RJEC 230000Z 15010KT 9999 FEW030 SCT100 23/15 Q0999
RJEC 222300Z 18010KT 9999 FEW030 SCT080 22/14 Q1000
RJEC 222200Z 17010KT 9999 FEW030 BKN080 19/12 Q1000
RJEC 222140Z 17010KT 9999 FEW030 19/13 Q1000 RMK 1CU030 A2955
RJEC 221100Z 17004KT 140V200 9999 FEW020 SCT030 BKN060 16/11 Q1000
RJEC 221000Z 23006KT 180V270 9999 FEW025 SCT035 18/11 Q0999
RJEC 220900Z 25004KT 210V330 9999 FEW025 SCT040 20/12 Q0999
RJEC 220800Z 24009G19KT 210V280 9999 FEW030 BKN045 20/12 Q0998
RJEC 220700Z 23009KT 180V280 9999 FEW025 BKN045 19/12 Q0998
RJEC 220600Z 23009KT 200V270 9999 FEW020 SCT030 BKN050 19/13 Q0998
RJEC 220500Z 23007KT 170V310 9999 FEW015 SCT025 BKN030 19/14 Q0998
RJEC 220400Z 22006KT 180V250 9999 FEW015 BKN025 BKN035 18/14 Q0998
RJEC 220300Z 20004KT 150V240 9999 FEW010 SCT015 BKN025 18/14 Q0999
RJEC 220200Z 20007KT 160V240 9999 FEW005 SCT015 BKN025 17/13 Q0999
RJEC 220100Z 18006KT 9999 FEW010 SCT015 BKN025 17/13 Q0999
RJEC 220000Z 19008KT 160V230 9999 VCSH FEW008 SCT015 BKN025 17/13 Q0998
RJEC 212300Z 19007KT 160V230 9999 FEW005 SCT015 BKN025 16/13 Q0998
RJEC 212200Z 20003KT 9999 VCSH FEW003 SCT015 BKN025 15/13 Q0999
RJEC 212140Z 17005KT 9999 VCSH FEW003 SCT015 BKN025 15/14 Q0999 RMK 1ST003 4ST015 6CU025 A2950 SH NW-N
RJEC 211100Z VRB02KT 9999 TS FEW010 SCT015 BKN025 FEW025CB 16/15 Q0998
RJEC 211000Z 22004KT 190V260 9999 FEW008 SCT020 BKN040 17/15 Q0997
RJEC 210913Z 20006KT 9999 -SHRA FEW003 SCT015 BKN025 FEW025CB 18/16 Q0997 RMK 1ST003 3ST015 6CU025 1CB025 A2946 CB NE
RJEC 210900Z 21006KT 180V240 9999 -TSRA FEW003 SCT015 BKN025 FEW025CB 18/15 Q0997
RJEC 210808Z 19006KT 160V220 9999 -TSRA FEW005 SCT015 BKN025 FEW025CB 18/16 Q0997 RMK 1ST005 3ST015 6CU025 1CB025 A2946 FBL TS 15KM W MOV NE
RJEC 210800Z 18006KT 9999 -SHRA FEW005 SCT015 BKN025 18/16 Q0997
RJEC 210747Z 19008KT 160V220 8000 R34/1500VP2000N +SHRA FEW005 SCT015 BKN025 18/16 Q0997 RMK 1ST005 3ST015 6CU025 A2946 RI++
RJEC 210735Z 18011KT 9999 -SHRA FEW008 BKN025 BKN040 18/16 Q0997 RMK 1ST008 5CU025 6CU040 A2945
RJEC 210723Z 19011KT 7000 SHRA FEW006 SCT015 BKN025 19/15 Q0997 RMK 1ST006 3ST015 6CU025 A2946
RJEC 210700Z 18013KT 9999 FEW010 SCT025 FEW025CB BKN040 20/15 Q0997
RJEC 210600Z 18011KT 9999 FEW015 SCT035 BKN070 21/15 Q0997
RJEC 210500Z 17013KT 9999 VCSH FEW010 SCT020 BKN030 21/14 Q0998
RJEC 210400Z 18011KT 9999 FEW015 SCT035 BKN070 20/14 Q0998